createdAt,value
2019-05-25T00:00:00.855Z,14.50
2019-05-25T00:02:29.689Z,14.60
2019-05-25T00:04:58.520Z,14.60
2019-05-25T00:07:27.307Z,14.50
2019-05-25T00:09:56.027Z,14.40
2019-05-25T00:12:24.750Z,14.20
2019-05-25T00:14:53.592Z,14.30
2019-05-25T00:17:22.339Z,14.30
2019-05-25T00:19:51.025Z,14.30
2019-05-25T00:22:19.856Z,14.20
2019-05-25T00:24:48.574Z,14.20
2019-05-25T00:27:17.359Z,14.20
2019-05-25T00:29:46.210Z,14.10
2019-05-25T00:32:15.016Z,14.00
2019-05-25T00:34:43.741Z,14.00
2019-05-25T00:37:12.585Z,13.90
2019-05-25T00:39:41.379Z,14.00
2019-05-25T00:42:10.123Z,14.00
2019-05-25T00:44:38.932Z,13.90
2019-05-25T00:47:07.718Z,13.80
2019-05-25T00:49:36.523Z,13.70
2019-05-25T00:52:05.342Z,13.60
2019-05-25T00:54:34.119Z,13.60
2019-05-25T00:57:02.913Z,13.60
2019-05-25T00:59:31.689Z,13.50
2019-05-25T01:02:00.508Z,13.40
2019-05-25T01:04:29.280Z,13.30
2019-05-25T01:06:58.083Z,13.30
2019-05-25T01:09:26.857Z,13.20
2019-05-25T01:11:55.711Z,13.30
2019-05-25T01:14:24.555Z,13.20
2019-05-25T01:16:53.280Z,13.10
2019-05-25T01:19:24.956Z,13.00
2019-05-25T01:21:53.779Z,13.00
2019-05-25T01:24:22.683Z,12.90
2019-05-25T01:26:51.998Z,12.80
2019-05-25T01:29:20.755Z,12.70
2019-05-25T01:31:49.474Z,12.70
2019-05-25T01:34:18.227Z,12.60
2019-05-25T01:36:46.966Z,12.50
2019-05-25T01:39:15.701Z,12.50
2019-05-25T01:41:44.425Z,12.40
2019-05-25T01:44:13.362Z,12.30
2019-05-25T01:51:01.037Z,12.20
2019-05-25T01:53:29.770Z,12.20
2019-05-25T01:55:58.511Z,12.00
2019-05-25T01:58:27.280Z,12.00
2019-05-25T02:00:56.545Z,11.90
2019-05-25T02:03:25.321Z,11.90
2019-05-25T02:05:54.084Z,11.90
2019-05-25T02:08:22.808Z,11.80
2019-05-25T02:10:51.578Z,11.80
2019-05-25T02:13:20.343Z,11.70
2019-05-25T02:15:49.103Z,11.60
2019-05-25T02:18:17.914Z,11.60
2019-05-25T02:20:46.696Z,11.50
2019-05-25T02:23:15.441Z,11.40
2019-05-25T02:25:44.255Z,11.40
2019-05-25T02:28:13.001Z,11.30
2019-05-25T02:30:41.749Z,11.30
2019-05-25T02:33:11.985Z,11.20
2019-05-25T02:35:40.874Z,11.20
2019-05-25T02:38:09.646Z,11.10
2019-05-25T02:40:38.470Z,11.10
2019-05-25T02:43:07.367Z,11.00
2019-05-25T02:45:36.129Z,11.00
2019-05-25T02:48:05.228Z,11.00
2019-05-25T02:50:34.009Z,10.90
2019-05-25T02:53:02.843Z,10.80
2019-05-25T02:55:34.805Z,10.80
2019-05-25T02:58:02.073Z,10.70
2019-05-25T03:00:32.814Z,10.70
2019-05-25T03:03:03.143Z,10.70
2019-05-25T03:05:32.162Z,10.60
2019-05-25T03:08:00.894Z,10.60
2019-05-25T03:10:30.894Z,10.60
2019-05-25T03:13:03.232Z,10.60
2019-05-25T03:15:32.267Z,10.60
2019-05-25T03:18:01.219Z,10.50
2019-05-25T03:20:30.038Z,10.50
2019-05-25T03:22:58.745Z,10.40
2019-05-25T03:25:27.589Z,10.40
2019-05-25T03:27:56.337Z,10.40
2019-05-25T03:30:33.528Z,10.30
2019-05-25T03:33:02.435Z,10.30
2019-05-25T03:35:31.307Z,10.30
2019-05-25T03:38:00.253Z,10.30
2019-05-25T03:40:29.143Z,10.30
2019-05-25T03:42:57.899Z,10.30
2019-05-25T03:45:26.637Z,10.20
2019-05-25T03:47:55.506Z,10.20
2019-05-25T03:50:24.221Z,10.30
2019-05-25T03:52:52.965Z,10.30
2019-05-25T03:55:21.728Z,10.30
2019-05-25T03:57:50.447Z,10.30
2019-05-25T04:00:30.757Z,10.30
2019-05-25T04:02:59.593Z,10.30
2019-05-25T04:05:28.305Z,10.30
2019-05-25T04:07:57.076Z,10.30
2019-05-25T04:10:25.792Z,10.30
2019-05-25T04:12:54.541Z,10.30
2019-05-25T04:15:23.399Z,10.30
2019-05-25T04:17:52.212Z,10.30
2019-05-25T04:20:21.151Z,10.30
2019-05-25T04:22:50.015Z,10.40
2019-05-25T04:25:18.768Z,10.40
2019-05-25T04:27:47.706Z,10.40
2019-05-25T04:30:16.699Z,10.50
2019-05-25T04:32:45.413Z,10.50
2019-05-25T04:35:15.850Z,10.60
2019-05-25T04:37:44.602Z,10.60
2019-05-25T04:40:13.367Z,10.70
2019-05-25T04:42:42.047Z,10.80
2019-05-25T04:45:11.263Z,10.90
2019-05-25T04:47:40.042Z,10.90
2019-05-25T04:50:09.559Z,10.90
2019-05-25T04:52:41.096Z,11.00
2019-05-25T04:55:08.940Z,11.10
2019-05-25T04:57:37.761Z,11.10
2019-05-25T05:00:08.327Z,11.10
2019-05-25T05:02:37.195Z,11.20
2019-05-25T05:05:06.654Z,11.40
2019-05-25T05:07:35.377Z,11.50
2019-05-25T05:10:05.054Z,11.70
2019-05-25T05:12:33.770Z,11.80
2019-05-25T05:15:02.538Z,11.90
2019-05-25T05:17:31.372Z,12.00
2019-05-25T05:20:00.111Z,12.10
2019-05-25T05:22:29.149Z,12.20
2019-05-25T05:24:57.847Z,12.20
2019-05-25T05:27:27.701Z,12.20
2019-05-25T05:29:56.428Z,12.30
2019-05-25T05:32:27.900Z,12.30
2019-05-25T05:34:55.518Z,12.30
2019-05-25T05:37:25.439Z,12.30
2019-05-25T05:39:56.184Z,12.40
2019-05-25T05:42:26.354Z,12.30
2019-05-25T05:44:57.045Z,12.30
2019-05-25T05:47:26.718Z,12.40
2019-05-25T05:49:55.951Z,12.40
2019-05-25T05:52:27.293Z,12.50
2019-05-25T05:54:59.058Z,12.70
2019-05-25T05:57:27.735Z,12.80
2019-05-25T05:59:56.452Z,12.90
2019-05-25T06:02:25.151Z,12.90
2019-05-25T06:04:53.846Z,13.10
2019-05-25T06:07:22.562Z,13.00
2019-05-25T06:09:51.252Z,13.10
2019-05-25T06:12:20.921Z,13.10
2019-05-25T06:14:49.653Z,13.20
2019-05-25T06:17:19.136Z,13.20
2019-05-25T06:19:47.870Z,13.40
2019-05-25T06:22:16.963Z,13.40
2019-05-25T06:24:45.631Z,13.40
2019-05-25T06:27:26.410Z,13.50
2019-05-25T06:29:44.909Z,13.60
2019-05-25T06:32:13.602Z,13.60
2019-05-25T06:34:42.294Z,13.60
2019-05-25T06:37:11.145Z,13.60
2019-05-25T06:39:39.935Z,13.50
2019-05-25T06:42:08.601Z,13.60
2019-05-25T06:44:39.340Z,13.50
2019-05-25T06:47:08.241Z,13.80
2019-05-25T06:49:36.926Z,14.00
2019-05-25T06:52:05.755Z,14.10
2019-05-25T06:54:35.380Z,14.00
2019-05-25T06:57:04.224Z,14.10
2019-05-25T06:59:32.962Z,14.40
2019-05-25T07:02:01.679Z,14.30
2019-05-25T07:04:30.411Z,14.10
2019-05-25T07:06:59.146Z,14.00
2019-05-25T07:09:27.838Z,14.50
2019-05-25T07:11:56.614Z,14.60
2019-05-25T07:14:25.429Z,14.80
2019-05-25T07:16:54.313Z,14.80
2019-05-25T07:19:23.397Z,14.50
2019-05-25T07:21:52.167Z,14.60
2019-05-25T07:24:21.293Z,14.60
2019-05-25T07:26:52.710Z,14.70
2019-05-25T07:29:21.488Z,14.50
2019-05-25T07:31:50.210Z,14.60
2019-05-25T07:34:19.193Z,14.90
2019-05-25T07:36:48.494Z,14.80
2019-05-25T07:39:19.250Z,14.80
2019-05-25T07:41:48.029Z,15.00
2019-05-25T07:44:16.781Z,15.10
2019-05-25T07:46:45.625Z,14.90
2019-05-25T07:49:14.348Z,14.80
2019-05-25T07:51:43.257Z,14.90
2019-05-25T07:54:12.016Z,14.70
2019-05-25T07:56:40.937Z,15.00
2019-05-25T07:59:09.929Z,14.80
2019-05-25T08:01:38.882Z,14.70
2019-05-25T08:04:07.592Z,14.70
2019-05-25T08:06:36.399Z,14.60
2019-05-25T08:09:07.272Z,14.60
2019-05-25T08:11:35.951Z,14.80
2019-05-25T08:14:04.981Z,14.70
2019-05-25T08:16:33.802Z,14.70
2019-05-25T08:19:02.675Z,14.90
2019-05-25T08:21:31.625Z,14.90
2019-05-25T08:24:00.528Z,14.90
2019-05-25T08:26:29.282Z,14.80
2019-05-25T08:28:58.038Z,15.00
2019-05-25T08:31:26.836Z,14.90
2019-05-25T08:33:55.642Z,14.70
2019-05-25T08:36:24.493Z,14.60
2019-05-25T08:38:54.897Z,14.80
2019-05-25T08:41:24.256Z,15.00
2019-05-25T08:43:53.306Z,15.00
2019-05-25T08:46:22.297Z,14.90
2019-05-25T08:48:51.088Z,15.00
2019-05-25T08:51:19.974Z,15.20
2019-05-25T08:53:54.982Z,15.00
2019-05-25T08:56:28.033Z,15.00
2019-05-25T08:58:57.020Z,14.90
2019-05-25T09:01:27.254Z,14.80
2019-05-25T09:04:14.440Z,14.80
2019-05-25T09:06:43.471Z,14.70
2019-05-25T09:09:12.378Z,14.80
2019-05-25T09:11:41.356Z,14.90
2019-05-25T09:14:10.206Z,14.70
2019-05-25T09:16:40.294Z,14.60
2019-05-25T09:19:09.138Z,14.60
2019-05-25T09:21:38.077Z,14.60
2019-05-25T09:24:07.074Z,14.80
2019-05-25T09:26:36.019Z,14.80
2019-05-25T09:29:12.938Z,14.80
2019-05-25T09:31:41.839Z,14.70
2019-05-25T09:34:11.352Z,14.80
2019-05-25T09:36:40.177Z,15.00
2019-05-25T09:39:09.052Z,15.00
2019-05-25T09:41:37.917Z,15.20
2019-05-25T09:44:07.129Z,15.20
2019-05-25T09:46:36.022Z,15.40
2019-05-25T09:49:04.917Z,15.60
2019-05-25T09:51:33.767Z,15.50
2019-05-25T09:54:02.660Z,15.50
2019-05-25T09:56:32.064Z,15.30
2019-05-25T09:59:01.001Z,15.60
2019-05-25T10:01:30.272Z,15.90
2019-05-25T10:03:59.194Z,16.10
2019-05-25T10:06:28.357Z,16.50
2019-05-25T10:08:57.215Z,16.80
2019-05-25T10:11:26.315Z,17.00
2019-05-25T10:13:55.233Z,17.10
2019-05-25T10:16:24.128Z,16.90
2019-05-25T10:18:53.201Z,16.80
2019-05-25T10:21:22.109Z,16.60
2019-05-25T10:23:50.905Z,16.50
2019-05-25T10:26:22.876Z,16.60
2019-05-25T10:28:50.554Z,16.50
2019-05-25T10:31:19.283Z,16.80
2019-05-25T10:33:48.046Z,17.20
2019-05-25T10:36:17.014Z,17.90
2019-05-25T10:38:46.435Z,18.30
2019-05-25T10:41:15.255Z,18.90
2019-05-25T10:43:44.130Z,18.70
2019-05-25T10:46:12.897Z,18.60
2019-05-25T10:48:53.761Z,18.20
2019-05-25T10:51:22.625Z,18.00
2019-05-25T10:53:51.434Z,17.70
2019-05-25T10:56:20.400Z,17.60
2019-05-25T10:58:49.157Z,17.80
2019-05-25T11:01:17.911Z,17.50
2019-05-25T11:03:46.701Z,17.80
2019-05-25T11:06:15.499Z,18.10
2019-05-25T11:08:44.278Z,18.00
2019-05-25T11:11:13.138Z,18.40
2019-05-25T11:13:41.905Z,17.80
2019-05-25T11:16:10.778Z,17.80
2019-05-25T11:18:39.740Z,17.70
2019-05-25T11:21:08.544Z,17.60
2019-05-25T11:23:38.346Z,18.00
2019-05-25T11:26:07.145Z,17.80
2019-05-25T11:28:35.880Z,17.90
2019-05-25T11:31:04.737Z,17.70
2019-05-25T11:33:36.398Z,17.80
2019-05-25T11:36:05.250Z,18.10
2019-05-25T11:38:33.958Z,17.80
2019-05-25T11:41:02.789Z,18.00
2019-05-25T11:43:32.034Z,17.90
2019-05-25T11:46:02.562Z,18.30
2019-05-25T11:48:32.866Z,18.50
2019-05-25T11:51:02.667Z,18.30
2019-05-25T11:53:31.548Z,18.40
2019-05-25T11:56:00.470Z,18.50
2019-05-25T11:58:44.867Z,18.70
2019-05-25T12:01:02.141Z,18.50
2019-05-25T12:03:30.996Z,18.70
2019-05-25T12:05:59.813Z,18.80
2019-05-25T12:08:28.625Z,18.50
2019-05-25T12:10:57.529Z,18.50
2019-05-25T12:13:26.610Z,18.90
2019-05-25T12:15:55.652Z,18.70
2019-05-25T12:18:24.748Z,18.70
2019-05-25T12:20:53.607Z,18.80
2019-05-25T12:23:22.371Z,18.60
2019-05-25T12:25:51.211Z,18.30
2019-05-25T12:28:20.017Z,18.30
2019-05-25T12:30:48.905Z,18.30
2019-05-25T12:33:19.399Z,18.50
2019-05-25T12:35:48.249Z,18.50
2019-05-25T12:38:17.789Z,18.40
2019-05-25T12:40:53.582Z,18.30
2019-05-25T12:43:16.985Z,18.70
2019-05-25T12:45:45.785Z,18.50
2019-05-25T12:48:17.582Z,18.30
2019-05-25T12:50:46.470Z,18.60
2019-05-25T12:53:15.746Z,18.50
2019-05-25T12:55:44.612Z,18.70
2019-05-25T12:58:13.450Z,18.50
2019-05-25T13:00:55.140Z,18.20
2019-05-25T13:03:12.865Z,18.30
2019-05-25T13:05:41.748Z,18.50
2019-05-25T13:08:10.999Z,18.60
2019-05-25T13:10:40.475Z,18.50
2019-05-25T13:13:09.343Z,18.40
2019-05-25T13:15:38.289Z,17.90
2019-05-25T13:18:07.816Z,18.20
2019-05-25T13:20:37.415Z,18.30
2019-05-25T13:23:06.842Z,18.00
2019-05-25T13:25:35.843Z,18.40
2019-05-25T13:28:05.860Z,18.40
2019-05-25T13:30:34.635Z,18.70
2019-05-25T13:33:03.474Z,18.50
2019-05-25T13:35:33.397Z,18.90
2019-05-25T13:38:03.212Z,18.70
2019-05-25T13:40:32.062Z,18.50
2019-05-25T13:43:00.883Z,18.40
2019-05-25T13:45:30.709Z,18.50
2019-05-25T13:48:00.311Z,18.20
2019-05-25T13:50:29.218Z,18.00
2019-05-25T13:52:58.609Z,18.30
2019-05-25T13:55:28.404Z,18.30
2019-05-25T13:57:57.233Z,18.40
2019-05-25T14:00:27.279Z,18.20
2019-05-25T14:02:57.797Z,18.00
2019-05-25T14:05:26.632Z,17.90
2019-05-25T14:07:55.477Z,18.40
2019-05-25T14:10:25.170Z,17.90
2019-05-25T14:12:54.850Z,18.10
2019-05-25T14:15:23.702Z,17.80
2019-05-25T14:17:52.510Z,17.40
2019-05-25T14:20:22.108Z,17.40
2019-05-25T14:22:51.155Z,17.50
2019-05-25T14:25:19.889Z,17.80
2019-05-25T14:27:48.944Z,18.10
2019-05-25T14:30:18.761Z,17.90
2019-05-25T14:32:47.804Z,18.10
2019-05-25T14:35:16.644Z,18.00
2019-05-25T14:37:46.036Z,17.60
2019-05-25T14:40:15.304Z,17.60
2019-05-25T14:42:44.126Z,17.40
2019-05-25T14:45:13.373Z,17.50
2019-05-25T14:47:42.168Z,17.60
2019-05-25T14:50:11.499Z,17.30
2019-05-25T14:52:43.262Z,17.20
2019-05-25T14:55:10.969Z,17.50
2019-05-25T14:57:39.694Z,17.40
2019-05-25T15:00:09.442Z,17.70
2019-05-25T15:02:38.316Z,17.80
2019-05-25T15:05:07.385Z,17.70
2019-05-25T15:07:36.284Z,17.40
2019-05-25T15:10:07.647Z,17.30
2019-05-25T15:12:36.656Z,17.40
2019-05-25T15:15:06.220Z,17.10
2019-05-25T15:17:37.450Z,17.30
2019-05-25T15:20:07.353Z,17.20
2019-05-25T15:22:36.182Z,17.40
2019-05-25T15:25:05.978Z,17.30
2019-05-25T15:27:35.210Z,17.10
2019-05-25T15:30:04.866Z,17.00
2019-05-25T15:32:33.755Z,16.70
2019-05-25T15:35:02.753Z,16.90
2019-05-25T15:37:31.814Z,17.00
2019-05-25T15:40:00.716Z,16.90
2019-05-25T15:42:29.907Z,17.10
2019-05-25T15:44:59.124Z,16.90
2019-05-25T15:47:37.174Z,16.70
2019-05-25T15:50:12.841Z,17.00
2019-05-25T15:52:42.568Z,17.20
2019-05-25T15:55:13.450Z,17.20
2019-05-25T15:57:44.174Z,17.00
2019-05-25T16:00:14.440Z,16.90
2019-05-25T16:02:44.453Z,17.00
2019-05-25T16:05:14.829Z,17.10
2019-05-25T16:07:47.251Z,17.00
2019-05-25T16:10:18.905Z,17.00
2019-05-25T16:12:48.144Z,17.20
2019-05-25T16:15:27.091Z,17.20
2019-05-25T16:17:56.803Z,17.00
2019-05-25T16:20:26.545Z,16.70
2019-05-25T16:22:55.593Z,16.70
2019-05-25T16:25:24.899Z,16.70
2019-05-25T16:27:53.930Z,16.70
2019-05-25T16:30:23.369Z,16.50
2019-05-25T16:33:12.216Z,16.60
2019-05-25T16:35:23.313Z,16.60
2019-05-25T16:37:52.244Z,16.60
2019-05-25T16:40:21.589Z,16.50
2019-05-25T16:42:50.413Z,16.40
2019-05-25T16:45:19.398Z,16.20
2019-05-25T16:47:48.088Z,16.20
2019-05-25T16:50:17.433Z,16.20
2019-05-25T16:52:46.573Z,16.30
2019-05-25T16:55:15.557Z,16.30
2019-05-25T16:57:44.257Z,16.10
2019-05-25T17:00:13.796Z,16.10
2019-05-25T17:02:42.775Z,16.20
2019-05-25T17:05:12.303Z,16.10
2019-05-25T17:07:41.178Z,16.00
2019-05-25T17:10:10.140Z,16.10
2019-05-25T17:12:38.903Z,16.10
2019-05-25T17:15:08.078Z,16.20
2019-05-25T17:17:36.857Z,16.10
2019-05-25T17:20:06.567Z,16.00
2019-05-25T17:22:35.426Z,15.80
2019-05-25T17:25:04.706Z,15.70
2019-05-25T17:27:33.620Z,15.70
2019-05-25T17:30:02.713Z,15.80
2019-05-25T17:32:31.745Z,15.70
2019-05-25T17:35:00.485Z,15.60
2019-05-25T17:37:29.306Z,15.60
2019-05-25T17:39:59.031Z,15.50
2019-05-25T17:42:27.834Z,15.50
2019-05-25T17:44:56.882Z,15.50
2019-05-25T17:47:25.761Z,15.30
2019-05-25T17:49:54.722Z,15.30
2019-05-25T17:52:23.641Z,15.50
2019-05-25T17:54:52.401Z,15.50
2019-05-25T17:57:22.010Z,15.40
2019-05-25T17:59:51.959Z,15.40
2019-05-25T18:02:21.303Z,15.50
2019-05-25T18:04:51.860Z,15.30
2019-05-25T18:07:22.532Z,15.30
2019-05-25T18:09:52.377Z,15.30
2019-05-25T18:12:22.239Z,15.20
2019-05-25T18:14:52.190Z,15.10
2019-05-25T18:17:21.833Z,15.10
2019-05-25T18:19:51.774Z,15.00
2019-05-25T18:22:22.332Z,15.00
2019-05-25T18:24:52.182Z,15.00
2019-05-25T18:27:22.302Z,14.90
2019-05-25T18:29:52.656Z,14.90
2019-05-25T18:35:55.268Z,15.00
2019-05-25T18:38:25.335Z,15.00
2019-05-25T18:40:55.821Z,14.90
2019-05-25T18:43:25.303Z,14.70
2019-05-25T18:45:54.857Z,14.70
2019-05-25T18:48:25.533Z,14.70
2019-05-25T18:50:58.589Z,14.60
2019-05-25T18:53:30.398Z,14.60
2019-05-25T18:56:01.336Z,14.50
2019-05-25T18:58:32.142Z,14.50
2019-05-25T19:01:03.854Z,14.30
2019-05-25T19:03:35.364Z,14.30
2019-05-25T19:06:07.024Z,14.30
2019-05-25T19:08:38.475Z,14.20
2019-05-25T19:11:09.460Z,14.20
2019-05-25T19:13:40.740Z,14.20
2019-05-25T19:16:12.605Z,14.10
2019-05-25T19:18:46.934Z,14.00
2019-05-25T19:21:18.896Z,14.00
2019-05-25T19:23:49.015Z,13.80
2019-05-25T19:26:18.918Z,13.70
2019-05-25T19:28:50.227Z,13.60
2019-05-25T19:31:21.933Z,13.30
2019-05-25T19:33:52.503Z,13.20
2019-05-25T19:36:25.912Z,13.20
2019-05-25T19:38:58.894Z,13.00
2019-05-25T19:41:28.639Z,12.90
2019-05-25T19:43:58.387Z,12.70
2019-05-25T19:46:28.567Z,12.70
2019-05-25T19:48:59.219Z,12.60
2019-05-25T19:51:29.188Z,12.50
2019-05-25T19:53:58.967Z,12.40
2019-05-25T19:56:29.926Z,12.40
2019-05-25T19:58:59.803Z,12.20
2019-05-25T20:01:32.124Z,12.20
2019-05-25T20:04:01.486Z,12.10
2019-05-25T20:06:32.717Z,12.10
2019-05-25T20:09:02.052Z,11.90
2019-05-25T20:11:31.931Z,11.90
2019-05-25T20:14:01.245Z,11.80
2019-05-25T20:16:30.857Z,11.70
2019-05-25T20:19:03.378Z,11.60
2019-05-25T20:21:33.110Z,11.60
2019-05-25T20:24:02.497Z,11.50
2019-05-25T20:26:32.089Z,11.40
2019-05-25T20:29:01.597Z,11.40
2019-05-25T20:31:31.200Z,11.50
2019-05-25T20:34:00.750Z,11.40
2019-05-25T20:36:30.461Z,11.40
2019-05-25T20:39:00.040Z,11.40
2019-05-25T20:41:29.688Z,11.40
2019-05-25T20:43:59.121Z,11.40
2019-05-25T20:46:29.779Z,11.30
2019-05-25T20:48:59.270Z,11.30
2019-05-25T20:51:29.602Z,11.20
2019-05-25T20:54:00.216Z,11.10
2019-05-25T20:56:30.244Z,11.10
2019-05-25T20:59:00.659Z,11.20
2019-05-25T21:01:30.618Z,11.20
2019-05-25T21:04:00.258Z,11.10
2019-05-25T21:06:56.725Z,11.20
2019-05-25T21:09:25.910Z,11.20
2019-05-25T21:11:56.265Z,11.10
2019-05-25T21:14:25.674Z,11.10
2019-05-25T21:16:54.811Z,11.10
2019-05-25T21:19:23.891Z,11.10
2019-05-25T21:21:54.271Z,11.10
2019-05-25T21:24:24.073Z,11.20
2019-05-25T21:26:53.422Z,11.40
2019-05-25T21:29:22.274Z,11.40
2019-05-25T21:31:51.191Z,11.40
2019-05-25T21:34:19.954Z,11.40
2019-05-25T21:36:48.681Z,11.40
2019-05-25T21:39:17.842Z,11.40
2019-05-25T21:41:46.601Z,11.40
2019-05-25T21:44:15.390Z,11.40
2019-05-25T21:46:44.114Z,11.40
2019-05-25T21:49:12.841Z,11.40
2019-05-25T21:51:41.686Z,11.30
2019-05-25T21:54:17.236Z,11.30
2019-05-25T21:56:46.466Z,11.20
2019-05-25T21:59:15.580Z,11.30
2019-05-25T22:01:44.264Z,11.20
2019-05-25T22:04:13.097Z,11.10
2019-05-25T22:06:41.776Z,11.20
2019-05-25T22:09:10.460Z,11.10
2019-05-25T22:14:14.964Z,11.10
2019-05-25T22:16:43.666Z,11.10
2019-05-25T22:19:12.372Z,11.10
2019-05-25T22:21:41.151Z,11.00
2019-05-25T22:24:09.934Z,11.10
2019-05-25T22:26:38.702Z,11.00
2019-05-25T22:29:07.444Z,10.90
2019-05-25T22:31:36.154Z,10.90
2019-05-25T22:34:04.910Z,10.90
2019-05-25T22:36:40.307Z,10.90
2019-05-25T22:39:05.525Z,10.80
2019-05-25T22:41:34.222Z,10.80
2019-05-25T22:44:03.129Z,10.80
2019-05-25T22:46:31.834Z,10.80
2019-05-25T22:49:00.521Z,10.70
2019-05-25T22:51:29.310Z,10.70
2019-05-25T22:53:58.032Z,10.70
2019-05-25T22:56:26.721Z,10.70
2019-05-25T22:58:55.523Z,10.70
2019-05-25T23:01:24.220Z,10.60
2019-05-25T23:03:52.909Z,10.60
2019-05-25T23:06:21.726Z,10.50
2019-05-25T23:08:50.410Z,10.50
2019-05-25T23:11:19.114Z,10.40
2019-05-25T23:13:47.856Z,10.40
2019-05-25T23:16:16.621Z,10.30
2019-05-25T23:18:45.308Z,10.30
2019-05-25T23:21:14.078Z,10.40
2019-05-25T23:23:42.825Z,10.30
2019-05-25T23:26:11.559Z,10.20
2019-05-25T23:28:40.331Z,10.20
2019-05-25T23:31:09.101Z,10.10
2019-05-25T23:33:37.839Z,10.10
2019-05-25T23:36:06.633Z,10.10
2019-05-25T23:38:35.320Z,10.10
2019-05-25T23:41:05.090Z,10.00
2019-05-25T23:43:33.894Z,10.10
2019-05-25T23:46:02.581Z,10.00
2019-05-25T23:48:31.272Z,10.00
2019-05-25T23:51:00.042Z,10.00
2019-05-25T23:53:28.749Z,10.00
2019-05-25T23:55:57.450Z,10.00
2019-05-25T23:58:26.164Z,10.10
